sensor_id;sensor_type;location;lat;lon;timestamp;P1;durP1;ratioP1;P2;durP2;ratioP2
22679;SDS011;11507;44.858;10.374;2024-01-07T00:01:07;40.28;;;23.65;;
22679;SDS011;11507;44.858;10.374;2024-01-07T00:03:35;42.25;;;24.23;;
22679;SDS011;11507;44.858;10.374;2024-01-07T00:06:02;40.75;;;23.02;;
22679;SDS011;11507;44.858;10.374;2024-01-07T00:08:28;40.60;;;23.90;;
22679;SDS011;11507;44.858;10.374;2024-01-07T00:10:55;39.08;;;22.65;;
22679;SDS011;11507;44.858;10.374;2024-01-07T00:13:21;40.70;;;23.63;;
22679;SDS011;11507;44.858;10.374;2024-01-07T00:15:47;40.17;;;23.77;;
22679;SDS011;11507;44.858;10.374;2024-01-07T00:18:14;41.90;;;23.83;;
22679;SDS011;11507;44.858;10.374;2024-01-07T00:20:40;40.75;;;23.55;;
22679;SDS011;11507;44.858;10.374;2024-01-07T00:23:07;40.75;;;23.75;;
22679;SDS011;11507;44.858;10.374;2024-01-07T00:25:34;41.08;;;22.88;;
22679;SDS011;11507;44.858;10.374;2024-01-07T00:28:00;38.40;;;22.80;;
22679;SDS011;11507;44.858;10.374;2024-01-07T00:30:27;40.30;;;22.48;;
22679;SDS011;11507;44.858;10.374;2024-01-07T00:32:53;39.08;;;22.05;;
22679;SDS011;11507;44.858;10.374;2024-01-07T00:35:20;36.58;;;21.30;;
22679;SDS011;11507;44.858;10.374;2024-01-07T00:37:46;36.17;;;20.83;;
22679;SDS011;11507;44.858;10.374;2024-01-07T00:40:13;37.90;;;21.25;;
22679;SDS011;11507;44.858;10.374;2024-01-07T00:42:39;35.67;;;19.80;;
22679;SDS011;11507;44.858;10.374;2024-01-07T00:45:06;36.70;;;20.70;;
22679;SDS011;11507;44.858;10.374;2024-01-07T00:47:34;35.50;;;20.80;;
22679;SDS011;11507;44.858;10.374;2024-01-07T00:50:00;34.38;;;20.25;;
22679;SDS011;11507;44.858;10.374;2024-01-07T00:52:27;34.10;;;19.92;;
22679;SDS011;11507;44.858;10.374;2024-01-07T00:54:53;36.50;;;20.30;;
22679;SDS011;11507;44.858;10.374;2024-01-07T00:57:20;35.42;;;20.30;;
22679;SDS011;11507;44.858;10.374;2024-01-07T00:59:48;36.90;;;21.08;;
22679;SDS011;11507;44.858;10.374;2024-01-07T01:02:16;38.15;;;20.73;;
22679;SDS011;11507;44.858;10.374;2024-01-07T01:04:42;37.15;;;20.45;;
22679;SDS011;11507;44.858;10.374;2024-01-07T01:07:09;36.53;;;21.40;;
22679;SDS011;11507;44.858;10.374;2024-01-07T01:09:35;36.22;;;20.95;;
22679;SDS011;11507;44.858;10.374;2024-01-07T01:12:02;35.10;;;20.55;;
22679;SDS011;11507;44.858;10.374;2024-01-07T01:14:29;36.83;;;21.75;;
22679;SDS011;11507;44.858;10.374;2024-01-07T01:16:56;37.75;;;21.45;;
22679;SDS011;11507;44.858;10.374;2024-01-07T01:19:23;37.65;;;20.30;;
22679;SDS011;11507;44.858;10.374;2024-01-07T01:21:50;39.13;;;20.88;;
22679;SDS011;11507;44.858;10.374;2024-01-07T01:24:16;38.03;;;21.58;;
22679;SDS011;11507;44.858;10.374;2024-01-07T01:26:43;36.22;;;19.92;;
22679;SDS011;11507;44.858;10.374;2024-01-07T01:29:10;36.05;;;20.67;;
22679;SDS011;11507;44.858;10.374;2024-01-07T01:31:36;35.15;;;20.20;;
22679;SDS011;11507;44.858;10.374;2024-01-07T01:34:03;36.00;;;20.27;;
22679;SDS011;11507;44.858;10.374;2024-01-07T01:36:30;37.58;;;21.02;;
22679;SDS011;11507;44.858;10.374;2024-01-07T01:38:57;37.22;;;20.85;;
22679;SDS011;11507;44.858;10.374;2024-01-07T01:41:24;36.50;;;20.75;;
22679;SDS011;11507;44.858;10.374;2024-01-07T01:43:51;35.67;;;21.63;;
22679;SDS011;11507;44.858;10.374;2024-01-07T01:46:17;35.95;;;19.27;;
22679;SDS011;11507;44.858;10.374;2024-01-07T01:48:44;35.72;;;19.35;;
22679;SDS011;11507;44.858;10.374;2024-01-07T01:51:11;34.10;;;19.40;;
22679;SDS011;11507;44.858;10.374;2024-01-07T01:53:38;37.70;;;19.73;;
22679;SDS011;11507;44.858;10.374;2024-01-07T01:56:04;36.47;;;19.67;;
22679;SDS011;11507;44.858;10.374;2024-01-07T01:58:32;36.75;;;19.80;;
22679;SDS011;11507;44.858;10.374;2024-01-07T02:00:59;34.10;;;18.35;;
22679;SDS011;11507;44.858;10.374;2024-01-07T02:03:25;39.15;;;21.33;;
22679;SDS011;11507;44.858;10.374;2024-01-07T02:05:52;35.33;;;19.45;;
22679;SDS011;11507;44.858;10.374;2024-01-07T02:08:19;35.55;;;19.80;;
22679;SDS011;11507;44.858;10.374;2024-01-07T02:10:46;35.85;;;20.27;;
22679;SDS011;11507;44.858;10.374;2024-01-07T02:13:13;34.10;;;19.58;;
22679;SDS011;11507;44.858;10.374;2024-01-07T02:15:39;33.08;;;19.13;;
22679;SDS011;11507;44.858;10.374;2024-01-07T02:18:06;33.20;;;19.10;;
22679;SDS011;11507;44.858;10.374;2024-01-07T02:20:32;34.42;;;18.90;;
22679;SDS011;11507;44.858;10.374;2024-01-07T02:22:59;33.83;;;18.67;;
22679;SDS011;11507;44.858;10.374;2024-01-07T02:25:25;33.25;;;18.75;;
22679;SDS011;11507;44.858;10.374;2024-01-07T02:27:51;37.00;;;19.90;;
22679;SDS011;11507;44.858;10.374;2024-01-07T02:30:17;36.28;;;19.90;;
22679;SDS011;11507;44.858;10.374;2024-01-07T02:32:44;34.45;;;19.95;;
22679;SDS011;11507;44.858;10.374;2024-01-07T02:35:11;39.33;;;21.92;;
22679;SDS011;11507;44.858;10.374;2024-01-07T02:37:37;39.72;;;22.10;;
22679;SDS011;11507;44.858;10.374;2024-01-07T02:40:03;38.88;;;22.98;;
22679;SDS011;11507;44.858;10.374;2024-01-07T02:42:30;40.83;;;23.45;;
22679;SDS011;11507;44.858;10.374;2024-01-07T02:44:57;41.38;;;23.92;;
22679;SDS011;11507;44.858;10.374;2024-01-07T02:47:23;40.28;;;25.02;;
22679;SDS011;11507;44.858;10.374;2024-01-07T02:49:49;40.20;;;24.25;;
22679;SDS011;11507;44.858;10.374;2024-01-07T02:52:16;43.35;;;24.13;;
22679;SDS011;11507;44.858;10.374;2024-01-07T02:54:42;42.10;;;24.33;;
22679;SDS011;11507;44.858;10.374;2024-01-07T02:57:08;37.95;;;24.08;;
22679;SDS011;11507;44.858;10.374;2024-01-07T02:59:35;38.38;;;23.85;;
22679;SDS011;11507;44.858;10.374;2024-01-07T03:02:01;37.05;;;23.42;;
22679;SDS011;11507;44.858;10.374;2024-01-07T03:04:28;35.50;;;22.10;;
22679;SDS011;11507;44.858;10.374;2024-01-07T03:06:54;36.13;;;21.67;;
22679;SDS011;11507;44.858;10.374;2024-01-07T03:09:20;35.00;;;22.52;;
22679;SDS011;11507;44.858;10.374;2024-01-07T03:11:47;34.38;;;22.15;;
22679;SDS011;11507;44.858;10.374;2024-01-07T03:14:13;35.80;;;22.42;;
22679;SDS011;11507;44.858;10.374;2024-01-07T03:16:42;37.30;;;22.40;;
22679;SDS011;11507;44.858;10.374;2024-01-07T03:19:08;34.65;;;21.90;;
22679;SDS011;11507;44.858;10.374;2024-01-07T03:21:35;32.65;;;21.02;;
22679;SDS011;11507;44.858;10.374;2024-01-07T03:24:01;32.63;;;21.00;;
22679;SDS011;11507;44.858;10.374;2024-01-07T03:26:31;35.38;;;21.30;;
22679;SDS011;11507;44.858;10.374;2024-01-07T03:28:58;33.17;;;20.33;;
22679;SDS011;11507;44.858;10.374;2024-01-07T03:31:26;33.80;;;21.27;;
22679;SDS011;11507;44.858;10.374;2024-01-07T03:33:52;32.55;;;21.58;;
22679;SDS011;11507;44.858;10.374;2024-01-07T03:36:19;32.72;;;21.27;;
22679;SDS011;11507;44.858;10.374;2024-01-07T03:38:45;32.67;;;20.08;;
22679;SDS011;11507;44.858;10.374;2024-01-07T03:41:15;32.17;;;20.55;;
22679;SDS011;11507;44.858;10.374;2024-01-07T03:43:48;31.38;;;19.73;;
22679;SDS011;11507;44.858;10.374;2024-01-07T03:46:16;28.13;;;18.92;;
22679;SDS011;11507;44.858;10.374;2024-01-07T03:48:42;29.73;;;18.83;;
22679;SDS011;11507;44.858;10.374;2024-01-07T03:51:09;26.88;;;18.25;;
22679;SDS011;11507;44.858;10.374;2024-01-07T03:53:36;29.38;;;18.85;;
22679;SDS011;11507;44.858;10.374;2024-01-07T03:56:02;29.88;;;17.88;;
22679;SDS011;11507;44.858;10.374;2024-01-07T03:58:29;26.08;;;17.00;;
22679;SDS011;11507;44.858;10.374;2024-01-07T04:00:55;24.85;;;16.83;;
22679;SDS011;11507;44.858;10.374;2024-01-07T04:03:22;24.90;;;15.10;;
22679;SDS011;11507;44.858;10.374;2024-01-07T04:05:48;19.98;;;13.25;;
22679;SDS011;11507;44.858;10.374;2024-01-07T04:08:14;16.77;;;10.88;;
22679;SDS011;11507;44.858;10.374;2024-01-07T04:10:41;15.75;;;9.65;;
22679;SDS011;11507;44.858;10.374;2024-01-07T04:13:08;12.07;;;7.82;;
22679;SDS011;11507;44.858;10.374;2024-01-07T04:15:34;11.98;;;7.40;;
22679;SDS011;11507;44.858;10.374;2024-01-07T04:18:01;11.55;;;7.13;;
22679;SDS011;11507;44.858;10.374;2024-01-07T04:20:31;8.63;;;5.63;;
22679;SDS011;11507;44.858;10.374;2024-01-07T04:22:57;7.25;;;4.70;;
22679;SDS011;11507;44.858;10.374;2024-01-07T04:25:24;5.85;;;3.60;;
22679;SDS011;11507;44.858;10.374;2024-01-07T04:27:50;5.28;;;2.80;;
22679;SDS011;11507;44.858;10.374;2024-01-07T04:30:17;4.75;;;2.55;;
22679;SDS011;11507;44.858;10.374;2024-01-07T04:32:43;4.28;;;2.45;;
22679;SDS011;11507;44.858;10.374;2024-01-07T04:35:10;3.58;;;1.90;;
22679;SDS011;11507;44.858;10.374;2024-01-07T04:37:37;3.38;;;1.58;;
22679;SDS011;11507;44.858;10.374;2024-01-07T04:40:04;3.00;;;1.50;;
22679;SDS011;11507;44.858;10.374;2024-01-07T04:42:31;2.72;;;1.20;;
22679;SDS011;11507;44.858;10.374;2024-01-07T04:44:57;2.40;;;1.10;;
22679;SDS011;11507;44.858;10.374;2024-01-07T04:47:25;3.90;;;1.20;;
22679;SDS011;11507;44.858;10.374;2024-01-07T04:49:52;2.63;;;1.30;;
22679;SDS011;11507;44.858;10.374;2024-01-07T04:52:18;2.30;;;1.00;;
22679;SDS011;11507;44.858;10.374;2024-01-07T04:54:45;2.28;;;1.05;;
22679;SDS011;11507;44.858;10.374;2024-01-07T04:57:11;2.05;;;1.00;;
22679;SDS011;11507;44.858;10.374;2024-01-07T04:59:37;2.80;;;1.08;;
22679;SDS011;11507;44.858;10.374;2024-01-07T05:02:04;2.95;;;1.20;;
22679;SDS011;11507;44.858;10.374;2024-01-07T05:04:31;3.30;;;1.67;;
22679;SDS011;11507;44.858;10.374;2024-01-07T05:06:58;2.88;;;1.38;;
22679;SDS011;11507;44.858;10.374;2024-01-07T05:09:24;2.75;;;1.30;;
22679;SDS011;11507;44.858;10.374;2024-01-07T05:11:50;2.13;;;1.08;;
22679;SDS011;11507;44.858;10.374;2024-01-07T05:14:17;4.85;;;2.47;;
22679;SDS011;11507;44.858;10.374;2024-01-07T05:16:43;10.60;;;5.70;;
22679;SDS011;11507;44.858;10.374;2024-01-07T05:19:10;11.05;;;5.93;;
22679;SDS011;11507;44.858;10.374;2024-01-07T05:21:36;14.40;;;8.50;;
22679;SDS011;11507;44.858;10.374;2024-01-07T05:24:02;12.40;;;7.20;;
22679;SDS011;11507;44.858;10.374;2024-01-07T05:26:30;9.38;;;5.80;;
22679;SDS011;11507;44.858;10.374;2024-01-07T05:28:56;10.43;;;6.25;;
22679;SDS011;11507;44.858;10.374;2024-01-07T05:31:22;11.88;;;6.65;;
22679;SDS011;11507;44.858;10.374;2024-01-07T05:33:49;12.93;;;6.95;;
22679;SDS011;11507;44.858;10.374;2024-01-07T05:36:15;11.75;;;6.55;;
22679;SDS011;11507;44.858;10.374;2024-01-07T05:38:41;12.18;;;6.40;;
22679;SDS011;11507;44.858;10.374;2024-01-07T05:41:08;10.55;;;6.03;;
22679;SDS011;11507;44.858;10.374;2024-01-07T05:43:35;9.65;;;6.00;;
22679;SDS011;11507;44.858;10.374;2024-01-07T05:46:02;12.02;;;6.75;;
22679;SDS011;11507;44.858;10.374;2024-01-07T05:48:29;12.82;;;7.35;;
22679;SDS011;11507;44.858;10.374;2024-01-07T05:50:55;15.00;;;9.15;;
22679;SDS011;11507;44.858;10.374;2024-01-07T05:53:22;14.93;;;8.73;;
22679;SDS011;11507;44.858;10.374;2024-01-07T05:55:48;16.52;;;9.50;;
22679;SDS011;11507;44.858;10.374;2024-01-07T05:58:15;15.45;;;8.55;;
22679;SDS011;11507;44.858;10.374;2024-01-07T06:00:41;17.52;;;9.82;;
22679;SDS011;11507;44.858;10.374;2024-01-07T06:03:10;15.77;;;9.55;;
22679;SDS011;11507;44.858;10.374;2024-01-07T06:05:37;16.42;;;9.85;;
22679;SDS011;11507;44.858;10.374;2024-01-07T06:08:05;18.23;;;11.00;;
22679;SDS011;11507;44.858;10.374;2024-01-07T06:10:32;17.88;;;10.52;;
22679;SDS011;11507;44.858;10.374;2024-01-07T06:12:58;17.35;;;9.73;;
22679;SDS011;11507;44.858;10.374;2024-01-07T06:15:25;16.13;;;10.55;;
22679;SDS011;11507;44.858;10.374;2024-01-07T06:17:51;18.35;;;11.57;;
22679;SDS011;11507;44.858;10.374;2024-01-07T06:20:17;17.45;;;11.15;;
22679;SDS011;11507;44.858;10.374;2024-01-07T06:22:44;18.20;;;11.15;;
22679;SDS011;11507;44.858;10.374;2024-01-07T06:25:11;17.15;;;10.95;;
22679;SDS011;11507;44.858;10.374;2024-01-07T06:27:40;20.00;;;11.98;;
22679;SDS011;11507;44.858;10.374;2024-01-07T06:30:07;20.27;;;12.20;;
22679;SDS011;11507;44.858;10.374;2024-01-07T06:32:34;20.15;;;12.35;;
22679;SDS011;11507;44.858;10.374;2024-01-07T06:35:01;20.67;;;12.85;;
22679;SDS011;11507;44.858;10.374;2024-01-07T06:37:28;21.88;;;13.27;;
22679;SDS011;11507;44.858;10.374;2024-01-07T06:39:55;22.33;;;13.10;;
22679;SDS011;11507;44.858;10.374;2024-01-07T06:42:24;21.58;;;13.80;;
22679;SDS011;11507;44.858;10.374;2024-01-07T06:44:50;23.33;;;14.50;;
22679;SDS011;11507;44.858;10.374;2024-01-07T06:47:17;22.05;;;14.32;;
22679;SDS011;11507;44.858;10.374;2024-01-07T06:49:43;22.55;;;14.90;;
22679;SDS011;11507;44.858;10.374;2024-01-07T06:52:10;21.42;;;14.15;;
22679;SDS011;11507;44.858;10.374;2024-01-07T06:54:37;22.95;;;15.18;;
22679;SDS011;11507;44.858;10.374;2024-01-07T06:57:04;23.33;;;15.40;;
22679;SDS011;11507;44.858;10.374;2024-01-07T06:59:31;22.77;;;14.75;;
22679;SDS011;11507;44.858;10.374;2024-01-07T07:01:57;22.55;;;14.65;;
22679;SDS011;11507;44.858;10.374;2024-01-07T07:04:23;23.58;;;15.13;;
22679;SDS011;11507;44.858;10.374;2024-01-07T07:06:50;26.30;;;16.63;;
22679;SDS011;11507;44.858;10.374;2024-01-07T07:09:16;24.30;;;16.15;;
22679;SDS011;11507;44.858;10.374;2024-01-07T07:11:43;25.52;;;16.42;;
22679;SDS011;11507;44.858;10.374;2024-01-07T07:14:09;25.38;;;16.60;;
22679;SDS011;11507;44.858;10.374;2024-01-07T07:16:36;26.63;;;16.33;;
22679;SDS011;11507;44.858;10.374;2024-01-07T07:19:02;26.20;;;17.23;;
22679;SDS011;11507;44.858;10.374;2024-01-07T07:21:29;25.65;;;16.17;;
22679;SDS011;11507;44.858;10.374;2024-01-07T07:23:56;26.67;;;17.48;;
22679;SDS011;11507;44.858;10.374;2024-01-07T07:26:22;29.30;;;17.95;;
22679;SDS011;11507;44.858;10.374;2024-01-07T07:28:49;24.40;;;16.60;;
22679;SDS011;11507;44.858;10.374;2024-01-07T07:31:15;27.75;;;18.08;;
22679;SDS011;11507;44.858;10.374;2024-01-07T07:33:42;29.23;;;20.77;;
22679;SDS011;11507;44.858;10.374;2024-01-07T07:36:08;34.55;;;22.30;;
22679;SDS011;11507;44.858;10.374;2024-01-07T07:38:35;30.60;;;20.20;;
22679;SDS011;11507;44.858;10.374;2024-01-07T07:41:01;29.05;;;18.63;;
22679;SDS011;11507;44.858;10.374;2024-01-07T07:43:28;34.13;;;21.08;;
22679;SDS011;11507;44.858;10.374;2024-01-07T07:45:55;32.13;;;20.20;;
22679;SDS011;11507;44.858;10.374;2024-01-07T07:48:21;29.55;;;18.77;;
22679;SDS011;11507;44.858;10.374;2024-01-07T07:50:48;31.30;;;18.35;;
22679;SDS011;11507;44.858;10.374;2024-01-07T07:53:15;31.50;;;19.25;;
22679;SDS011;11507;44.858;10.374;2024-01-07T07:55:42;27.95;;;19.20;;
22679;SDS011;11507;44.858;10.374;2024-01-07T07:58:08;36.50;;;21.75;;
22679;SDS011;11507;44.858;10.374;2024-01-07T08:00:35;33.13;;;21.92;;
22679;SDS011;11507;44.858;10.374;2024-01-07T08:03:01;34.08;;;22.33;;
22679;SDS011;11507;44.858;10.374;2024-01-07T08:05:28;34.13;;;21.85;;
22679;SDS011;11507;44.858;10.374;2024-01-07T08:07:54;31.67;;;20.67;;
22679;SDS011;11507;44.858;10.374;2024-01-07T08:10:21;34.00;;;20.02;;
22679;SDS011;11507;44.858;10.374;2024-01-07T08:12:48;30.27;;;20.05;;
22679;SDS011;11507;44.858;10.374;2024-01-07T08:15:15;31.20;;;20.60;;
22679;SDS011;11507;44.858;10.374;2024-01-07T08:17:41;29.23;;;18.77;;
22679;SDS011;11507;44.858;10.374;2024-01-07T08:20:09;28.83;;;19.08;;
22679;SDS011;11507;44.858;10.374;2024-01-07T08:22:36;29.45;;;18.90;;
22679;SDS011;11507;44.858;10.374;2024-01-07T08:25:02;29.80;;;17.90;;
22679;SDS011;11507;44.858;10.374;2024-01-07T08:27:29;29.00;;;18.83;;
22679;SDS011;11507;44.858;10.374;2024-01-07T08:29:58;27.85;;;18.80;;
22679;SDS011;11507;44.858;10.374;2024-01-07T08:32:24;26.52;;;18.27;;
22679;SDS011;11507;44.858;10.374;2024-01-07T08:34:51;28.05;;;18.70;;
22679;SDS011;11507;44.858;10.374;2024-01-07T08:37:17;29.05;;;18.33;;
22679;SDS011;11507;44.858;10.374;2024-01-07T08:39:44;29.00;;;18.23;;
22679;SDS011;11507;44.858;10.374;2024-01-07T08:42:10;27.42;;;18.20;;
22679;SDS011;11507;44.858;10.374;2024-01-07T08:44:37;27.85;;;16.83;;
22679;SDS011;11507;44.858;10.374;2024-01-07T08:47:04;29.50;;;17.23;;
22679;SDS011;11507;44.858;10.374;2024-01-07T08:49:31;26.52;;;18.10;;
22679;SDS011;11507;44.858;10.374;2024-01-07T08:52:01;25.25;;;17.13;;
22679;SDS011;11507;44.858;10.374;2024-01-07T08:54:28;24.58;;;15.82;;
22679;SDS011;11507;44.858;10.374;2024-01-07T08:56:54;27.88;;;17.92;;
22679;SDS011;11507;44.858;10.374;2024-01-07T08:59:21;26.15;;;16.40;;
22679;SDS011;11507;44.858;10.374;2024-01-07T09:01:48;23.48;;;15.85;;
22679;SDS011;11507;44.858;10.374;2024-01-07T09:04:14;24.45;;;17.25;;
22679;SDS011;11507;44.858;10.374;2024-01-07T09:06:46;26.10;;;17.20;;
22679;SDS011;11507;44.858;10.374;2024-01-07T09:09:12;23.67;;;15.82;;
22679;SDS011;11507;44.858;10.374;2024-01-07T09:11:39;22.98;;;15.73;;
22679;SDS011;11507;44.858;10.374;2024-01-07T09:14:05;23.33;;;15.27;;
22679;SDS011;11507;44.858;10.374;2024-01-07T09:16:31;22.90;;;14.80;;
22679;SDS011;11507;44.858;10.374;2024-01-07T09:18:58;25.80;;;17.45;;
22679;SDS011;11507;44.858;10.374;2024-01-07T09:21:24;25.50;;;16.25;;
22679;SDS011;11507;44.858;10.374;2024-01-07T09:23:51;26.50;;;18.05;;
22679;SDS011;11507;44.858;10.374;2024-01-07T09:26:18;23.45;;;16.15;;
22679;SDS011;11507;44.858;10.374;2024-01-07T09:28:44;17.08;;;11.07;;
22679;SDS011;11507;44.858;10.374;2024-01-07T09:31:11;14.65;;;10.05;;
22679;SDS011;11507;44.858;10.374;2024-01-07T09:33:37;14.82;;;10.30;;
22679;SDS011;11507;44.858;10.374;2024-01-07T09:36:04;15.77;;;11.13;;
22679;SDS011;11507;44.858;10.374;2024-01-07T09:38:32;15.52;;;10.40;;
22679;SDS011;11507;44.858;10.374;2024-01-07T09:41:00;16.05;;;10.60;;
22679;SDS011;11507;44.858;10.374;2024-01-07T09:43:26;17.88;;;11.63;;
22679;SDS011;11507;44.858;10.374;2024-01-07T09:45:53;18.55;;;12.25;;
22679;SDS011;11507;44.858;10.374;2024-01-07T09:48:22;16.52;;;10.88;;
22679;SDS011;11507;44.858;10.374;2024-01-07T09:50:48;17.30;;;12.13;;
22679;SDS011;11507;44.858;10.374;2024-01-07T09:53:16;20.20;;;12.65;;
22679;SDS011;11507;44.858;10.374;2024-01-07T09:58:32;15.35;;;10.15;;
22679;SDS011;11507;44.858;10.374;2024-01-07T10:00:59;16.92;;;11.13;;
22679;SDS011;11507;44.858;10.374;2024-01-07T10:03:25;16.95;;;10.25;;
22679;SDS011;11507;44.858;10.374;2024-01-07T10:05:52;17.02;;;10.45;;
22679;SDS011;11507;44.858;10.374;2024-01-07T10:08:19;17.20;;;9.85;;
22679;SDS011;11507;44.858;10.374;2024-01-07T10:10:46;16.10;;;9.40;;
22679;SDS011;11507;44.858;10.374;2024-01-07T10:13:14;15.52;;;9.85;;
22679;SDS011;11507;44.858;10.374;2024-01-07T10:15:41;13.30;;;8.48;;
22679;SDS011;11507;44.858;10.374;2024-01-07T10:18:07;11.90;;;7.90;;
22679;SDS011;11507;44.858;10.374;2024-01-07T10:20:34;12.77;;;8.00;;
22679;SDS011;11507;44.858;10.374;2024-01-07T10:23:04;13.02;;;8.52;;
22679;SDS011;11507;44.858;10.374;2024-01-07T10:25:33;13.68;;;8.57;;
22679;SDS011;11507;44.858;10.374;2024-01-07T10:28:01;12.52;;;8.32;;
22679;SDS011;11507;44.858;10.374;2024-01-07T10:30:28;11.88;;;7.88;;
22679;SDS011;11507;44.858;10.374;2024-01-07T10:32:56;16.60;;;10.32;;
22679;SDS011;11507;44.858;10.374;2024-01-07T10:35:33;14.18;;;9.90;;
22679;SDS011;11507;44.858;10.374;2024-01-07T10:38:01;13.32;;;8.23;;
22679;SDS011;11507;44.858;10.374;2024-01-07T10:40:29;11.35;;;7.85;;
22679;SDS011;11507;44.858;10.374;2024-01-07T10:43:01;11.38;;;7.25;;
22679;SDS011;11507;44.858;10.374;2024-01-07T10:45:28;13.02;;;8.32;;
22679;SDS011;11507;44.858;10.374;2024-01-07T10:47:58;15.90;;;8.85;;
22679;SDS011;11507;44.858;10.374;2024-01-07T10:50:31;15.95;;;10.15;;
22679;SDS011;11507;44.858;10.374;2024-01-07T10:53:03;10.27;;;6.97;;
22679;SDS011;11507;44.858;10.374;2024-01-07T10:55:36;17.98;;;10.63;;
22679;SDS011;11507;44.858;10.374;2024-01-07T10:58:04;9.77;;;6.05;;
22679;SDS011;11507;44.858;10.374;2024-01-07T11:00:31;11.63;;;7.65;;
22679;SDS011;11507;44.858;10.374;2024-01-07T11:08:42;12.50;;;7.82;;
22679;SDS011;11507;44.858;10.374;2024-01-07T11:11:18;12.43;;;8.05;;
22679;SDS011;11507;44.858;10.374;2024-01-07T11:13:59;12.52;;;7.28;;
22679;SDS011;11507;44.858;10.374;2024-01-07T11:17:01;12.07;;;8.02;;
22679;SDS011;11507;44.858;10.374;2024-01-07T11:19:20;12.45;;;8.57;;
22679;SDS011;11507;44.858;10.374;2024-01-07T11:21:48;11.43;;;8.52;;
22679;SDS011;11507;44.858;10.374;2024-01-07T11:24:37;14.77;;;9.02;;
22679;SDS011;11507;44.858;10.374;2024-01-07T11:27:04;12.13;;;7.85;;
22679;SDS011;11507;44.858;10.374;2024-01-07T11:29:35;12.77;;;8.50;;
22679;SDS011;11507;44.858;10.374;2024-01-07T11:32:03;12.55;;;8.20;;
22679;SDS011;11507;44.858;10.374;2024-01-07T11:37:17;11.55;;;8.13;;
22679;SDS011;11507;44.858;10.374;2024-01-07T11:39:45;10.50;;;7.38;;
22679;SDS011;11507;44.858;10.374;2024-01-07T11:42:13;11.55;;;7.55;;
22679;SDS011;11507;44.858;10.374;2024-01-07T11:44:51;10.30;;;6.45;;
22679;SDS011;11507;44.858;10.374;2024-01-07T11:47:19;10.27;;;7.07;;
22679;SDS011;11507;44.858;10.374;2024-01-07T11:49:47;9.48;;;6.15;;
22679;SDS011;11507;44.858;10.374;2024-01-07T11:52:17;9.68;;;6.72;;
22679;SDS011;11507;44.858;10.374;2024-01-07T11:54:44;9.90;;;6.05;;
22679;SDS011;11507;44.858;10.374;2024-01-07T11:57:12;8.30;;;5.50;;
22679;SDS011;11507;44.858;10.374;2024-01-07T11:59:45;9.43;;;5.93;;
22679;SDS011;11507;44.858;10.374;2024-01-07T12:02:12;8.40;;;5.82;;
22679;SDS011;11507;44.858;10.374;2024-01-07T12:04:41;10.10;;;6.50;;
22679;SDS011;11507;44.858;10.374;2024-01-07T12:07:07;8.13;;;4.50;;
22679;SDS011;11507;44.858;10.374;2024-01-07T12:09:36;9.55;;;6.05;;
22679;SDS011;11507;44.858;10.374;2024-01-07T12:12:02;7.90;;;5.25;;
22679;SDS011;11507;44.858;10.374;2024-01-07T12:14:29;9.82;;;6.10;;
22679;SDS011;11507;44.858;10.374;2024-01-07T12:16:57;9.02;;;5.72;;
22679;SDS011;11507;44.858;10.374;2024-01-07T12:19:25;7.70;;;5.18;;
22679;SDS011;11507;44.858;10.374;2024-01-07T12:22:03;9.55;;;6.10;;
22679;SDS011;11507;44.858;10.374;2024-01-07T12:24:31;10.10;;;5.90;;
22679;SDS011;11507;44.858;10.374;2024-01-07T12:27:07;11.20;;;6.13;;
22679;SDS011;11507;44.858;10.374;2024-01-07T12:29:33;11.57;;;7.43;;
22679;SDS011;11507;44.858;10.374;2024-01-07T12:32:00;11.82;;;7.25;;
22679;SDS011;11507;44.858;10.374;2024-01-07T12:34:28;10.98;;;7.30;;
22679;SDS011;11507;44.858;10.374;2024-01-07T12:36:54;11.98;;;7.78;;
22679;SDS011;11507;44.858;10.374;2024-01-07T12:39:21;13.45;;;8.13;;
22679;SDS011;11507;44.858;10.374;2024-01-07T12:41:47;14.23;;;8.82;;
22679;SDS011;11507;44.858;10.374;2024-01-07T12:44:15;13.23;;;8.40;;
22679;SDS011;11507;44.858;10.374;2024-01-07T12:46:42;10.23;;;6.18;;
22679;SDS011;11507;44.858;10.374;2024-01-07T12:49:10;8.73;;;5.57;;
22679;SDS011;11507;44.858;10.374;2024-01-07T12:51:37;10.05;;;6.32;;
22679;SDS011;11507;44.858;10.374;2024-01-07T12:54:03;9.65;;;6.15;;
22679;SDS011;11507;44.858;10.374;2024-01-07T12:56:30;10.18;;;6.60;;
22679;SDS011;11507;44.858;10.374;2024-01-07T12:58:56;11.25;;;6.55;;
22679;SDS011;11507;44.858;10.374;2024-01-07T13:01:23;12.65;;;7.65;;
22679;SDS011;11507;44.858;10.374;2024-01-07T13:03:49;12.50;;;7.95;;
22679;SDS011;11507;44.858;10.374;2024-01-07T13:06:16;11.65;;;8.10;;
22679;SDS011;11507;44.858;10.374;2024-01-07T13:08:42;15.82;;;8.90;;
22679;SDS011;11507;44.858;10.374;2024-01-07T13:11:08;13.20;;;8.65;;
22679;SDS011;11507;44.858;10.374;2024-01-07T13:13:39;14.65;;;10.02;;
22679;SDS011;11507;44.858;10.374;2024-01-07T13:16:06;11.20;;;7.28;;
22679;SDS011;11507;44.858;10.374;2024-01-07T13:18:37;8.40;;;5.63;;
22679;SDS011;11507;44.858;10.374;2024-01-07T13:21:06;10.15;;;5.45;;
22679;SDS011;11507;44.858;10.374;2024-01-07T13:23:32;9.18;;;5.80;;
22679;SDS011;11507;44.858;10.374;2024-01-07T13:25:58;9.55;;;5.50;;
22679;SDS011;11507;44.858;10.374;2024-01-07T13:28:27;7.90;;;5.63;;
22679;SDS011;11507;44.858;10.374;2024-01-07T13:30:55;8.55;;;5.95;;
22679;SDS011;11507;44.858;10.374;2024-01-07T13:33:21;8.55;;;5.90;;
22679;SDS011;11507;44.858;10.374;2024-01-07T13:35:48;9.65;;;6.20;;
22679;SDS011;11507;44.858;10.374;2024-01-07T13:38:15;9.55;;;5.70;;
22679;SDS011;11507;44.858;10.374;2024-01-07T13:40:42;10.48;;;6.00;;
22679;SDS011;11507;44.858;10.374;2024-01-07T13:43:09;9.73;;;5.93;;
22679;SDS011;11507;44.858;10.374;2024-01-07T13:45:36;8.02;;;5.00;;
22679;SDS011;11507;44.858;10.374;2024-01-07T13:48:03;7.93;;;5.30;;
22679;SDS011;11507;44.858;10.374;2024-01-07T13:50:33;8.05;;;5.05;;
22679;SDS011;11507;44.858;10.374;2024-01-07T13:53:01;7.60;;;4.88;;
22679;SDS011;11507;44.858;10.374;2024-01-07T13:55:27;7.97;;;5.22;;
22679;SDS011;11507;44.858;10.374;2024-01-07T13:57:54;8.15;;;5.05;;
22679;SDS011;11507;44.858;10.374;2024-01-07T14:00:21;7.47;;;4.85;;
22679;SDS011;11507;44.858;10.374;2024-01-07T14:02:48;8.93;;;5.40;;
22679;SDS011;11507;44.858;10.374;2024-01-07T14:05:14;10.10;;;6.47;;
22679;SDS011;11507;44.858;10.374;2024-01-07T14:07:41;10.90;;;7.30;;
22679;SDS011;11507;44.858;10.374;2024-01-07T14:10:08;10.80;;;6.90;;
22679;SDS011;11507;44.858;10.374;2024-01-07T14:12:34;10.85;;;7.22;;
22679;SDS011;11507;44.858;10.374;2024-01-07T14:15:01;9.30;;;6.57;;
22679;SDS011;11507;44.858;10.374;2024-01-07T14:17:28;9.35;;;6.15;;
22679;SDS011;11507;44.858;10.374;2024-01-07T14:19:55;9.65;;;5.95;;
22679;SDS011;11507;44.858;10.374;2024-01-07T14:22:22;10.68;;;6.80;;
22679;SDS011;11507;44.858;10.374;2024-01-07T14:24:54;11.15;;;7.65;;
22679;SDS011;11507;44.858;10.374;2024-01-07T14:27:21;12.48;;;7.22;;